»·PEaware :: SKY411 KSBP-KOAR

SKY411 :: KSBP-KOAR

FLIGHT INFORMATION

Flight Status: Arrived
Operator:
Skymark Airlines
More flights by this operator :: More flights under this callsign
Pilot: Sergei F. (8485)
Aircraft: BEECH AIRCRAFT BARON
(BE58)
More flights by this aircraft type
Origin: KSBP San Luis Co Regl
United States
Destination: KOAR Marina
United States
More flights between these airports :: More routes between these airports
Route: CREPE3 PRB V248 SNS
File this flight plan on PilotEdge
Remarks:
Altitude:
(Current/Filed)
8,000ft
Speed:
(Current/Filed)
160kts
Departed: 05-Oct-18 08:59 PM
Arrived: 05-Oct-18 10:02 PM
Distance/Time
Traveled:
102nm/1:03
Distance/Time
To Go:
Arrived

Flight Plot

Page will automatically refresh every two minutes.

Flight plan parsing failed; only flown route is shown


Map Options




Map Legend


Flown Route
Filed Route
Departure Airport
Arrival Airport
Navaid (VOR, NDB)
Fix

Horizontal Profiles

Position Reports

Time Latitude Longitude Heading Altitude Ground
Speed
05-Oct-18 20:50 35.237915 -120.638634 270 183ft 0kts
05-Oct-18 20:51 35.237915 -120.638635 270 183ft 0kts
05-Oct-18 20:52 35.237915 -120.638635 270 183ft 0kts
05-Oct-18 20:53 35.237915 -120.638640 270 183ft 0kts
05-Oct-18 20:54 35.237521 -120.638944 205 183ft 0kts
05-Oct-18 20:55 35.237521 -120.638944 205 183ft 0kts
05-Oct-18 20:56 35.237521 -120.638944 205 183ft 0kts
05-Oct-18 20:57 35.237109 -120.638706 124 183ft 12kts
05-Oct-18 20:58 35.234160 -120.633520 125 183ft 18kts
05-Oct-18 20:59 35.233190 -120.632417 213 183ft 0kts
05-Oct-18 21:00 35.233189 -120.632418 213 183ft 0kts
05-Oct-18 21:01 35.236953 -120.640456 304 219ft 97kts
05-Oct-18 21:02 35.253281 -120.668679 306 1517ft 104kts
05-Oct-18 21:03 35.269807 -120.697475 306 2823ft 103kts
05-Oct-18 21:04 35.299251 -120.703786 7 4244ft 106kts
05-Oct-18 21:05 35.321093 -120.698107 5 4933ft 96kts
05-Oct-18 21:06 35.348296 -120.691849 5 5678ft 102kts
05-Oct-18 21:07 35.376215 -120.685848 4 6448ft 102kts
05-Oct-18 21:08 35.403972 -120.680162 3 7189ft 101kts
05-Oct-18 21:09 35.431520 -120.674670 2 7898ft 100kts
05-Oct-18 21:10 35.463382 -120.668477 4 8015ft 134kts
05-Oct-18 21:11 35.502516 -120.660738 4 8013ft 150kts
05-Oct-18 21:12 35.547127 -120.651993 4 8011ft 168kts
05-Oct-18 21:13 35.593663 -120.642866 4 8010ft 171kts
05-Oct-18 21:14 35.640860 -120.633642 4 8009ft 172kts
05-Oct-18 21:15 35.687313 -120.637145 352 8009ft 169kts
05-Oct-18 21:16 35.732588 -120.650759 341 8009ft 167kts
05-Oct-18 21:17 35.777270 -120.667214 340 8009ft 167kts
05-Oct-18 21:18 35.821972 -120.683943 340 8009ft 167kts
05-Oct-18 21:19 35.866394 -120.700674 340 8008ft 167kts
05-Oct-18 21:20 35.910982 -120.717519 340 8008ft 167kts
05-Oct-18 21:21 35.955489 -120.734363 340 8008ft 167kts
05-Oct-18 21:22 36.000045 -120.751250 340 8008ft 167kts
05-Oct-18 21:23 36.044574 -120.767697 341 8008ft 167kts
05-Oct-18 21:24 36.089203 -120.783985 341 8007ft 167kts
05-Oct-18 21:25 36.133898 -120.800297 341 8011ft 168kts
05-Oct-18 21:26 36.164658 -120.838623 293 8011ft 169kts
05-Oct-18 21:27 36.181295 -120.893243 293 8010ft 169kts
05-Oct-18 21:28 36.201091 -120.945307 311 8011ft 167kts
05-Oct-18 21:29 36.231630 -120.988826 312 8013ft 167kts
05-Oct-18 21:30 36.262322 -121.032196 312 8017ft 167kts
05-Oct-18 21:31 36.293099 -121.075630 311 8022ft 167kts
05-Oct-18 21:32 36.323789 -121.118952 311 8027ft 167kts
05-Oct-18 21:33 36.354442 -121.162339 311 8033ft 168kts
05-Oct-18 21:34 36.385299 -121.206018 311 8036ft 168kts
05-Oct-18 21:35 36.416380 -121.250033 311 7990ft 169kts
05-Oct-18 21:36 36.447320 -121.293942 311 7990ft 169kts
05-Oct-18 21:37 36.478517 -121.338224 311 7664ft 174kts
05-Oct-18 21:38 36.509089 -121.381696 310 6849ft 164kts
05-Oct-18 21:39 36.538944 -121.424388 310 6012ft 163kts
05-Oct-18 21:40 36.568744 -121.466935 310 5198ft 164kts
05-Oct-18 21:41 36.597043 -121.507453 310 4995ft 142kts
05-Oct-18 21:42 36.621241 -121.542064 309 4995ft 123kts
05-Oct-18 21:43 36.645093 -121.571968 340 5002ft 131kts
05-Oct-18 21:44 36.681442 -121.557731 47 4998ft 149kts
05-Oct-18 21:45 36.673030 -121.511388 133 4999ft 151kts
05-Oct-18 21:46 36.645065 -121.472820 133 4998ft 150kts
05-Oct-18 21:47 36.621071 -121.430886 114 4998ft 150kts
05-Oct-18 21:48 36.604366 -121.383064 113 4999ft 150kts
05-Oct-18 21:49 36.588099 -121.335440 113 5001ft 150kts
05-Oct-18 21:50 36.568067 -121.291443 157 5002ft 145kts
05-Oct-18 21:51 36.534401 -121.305832 242 5000ft 131kts
05-Oct-18 21:52 36.541459 -121.347413 293 5000ft 128kts
05-Oct-18 21:53 36.555548 -121.388408 295 4999ft 129kts
05-Oct-18 21:54 36.572497 -121.427782 299 4807ft 125kts
05-Oct-18 21:55 36.590338 -121.464296 301 4142ft 122kts
05-Oct-18 21:56 36.608606 -121.499634 302 3823ft 121kts
05-Oct-18 21:57 36.627261 -121.534765 302 3630ft 116kts
05-Oct-18 21:58 36.645219 -121.568735 303 3001ft 116kts
05-Oct-18 21:59 36.662717 -121.602535 283 2754ft 110kts
05-Oct-18 22:00 36.667291 -121.639663 278 2421ft 110kts
05-Oct-18 22:01 36.671022 -121.677047 276 1760ft 98kts
05-Oct-18 22:02 36.674028 -121.710455 271 1021ft 96kts
05-Oct-18 22:03 36.673235 -121.742371 275 330ft 88kts
05-Oct-18 22:04 36.682859 -121.764240 302 136ft 24kts
05-Oct-18 22:05 36.682597 -121.767033 120 136ft 8kts
05-Oct-18 22:06 36.681556 -121.767100 31 136ft 0kts

Navigation Log

Ident Type
Flight plan parsing failed, navigation log unavailable